createdAt,value
2019-06-07T00:01:33.160Z,77.51
2019-06-07T00:03:59.150Z,77.30
2019-06-07T00:06:26.040Z,77.53
2019-06-07T00:08:52.166Z,77.73
2019-06-07T00:11:20.584Z,78.07
2019-06-07T00:13:46.149Z,77.89
2019-06-07T00:16:14.946Z,78.03
2019-06-07T00:18:40.067Z,78.38
2019-06-07T00:21:06.038Z,78.26
2019-06-07T00:23:32.103Z,77.77
2019-06-07T00:25:58.149Z,77.69
2019-06-07T00:28:24.188Z,77.59
2019-06-07T00:30:52.225Z,78.06
2019-06-07T00:33:23.345Z,78.25
2019-06-07T00:35:45.965Z,78.79
2019-06-07T00:38:11.970Z,78.71
2019-06-07T00:40:38.056Z,79.16
2019-06-07T00:43:04.059Z,79.29
2019-06-07T00:45:30.178Z,79.11
2019-06-07T00:47:56.269Z,79.72
2019-06-07T00:50:24.120Z,79.61
2019-06-07T00:55:20.063Z,79.28
2019-06-07T00:57:46.305Z,79.41
2019-06-07T01:00:15.037Z,79.48
2019-06-07T01:02:42.298Z,79.38
2019-06-07T01:05:08.428Z,79.41
2019-06-07T01:07:34.452Z,78.91
2019-06-07T01:10:01.098Z,79.54
2019-06-07T01:12:27.307Z,79.66
2019-06-07T01:14:53.505Z,79.72
2019-06-07T01:17:36.294Z,80.25
2019-06-07T01:19:51.157Z,80.14
2019-06-07T01:22:18.405Z,80.44
2019-06-07T01:24:45.075Z,80.06
2019-06-07T01:27:11.092Z,79.95
2019-06-07T01:29:37.177Z,79.80
2019-06-07T01:32:03.232Z,80.36
2019-06-07T01:34:29.240Z,80.15
2019-06-07T01:36:55.223Z,79.62
2019-06-07T01:39:23.975Z,79.57
2019-06-07T01:41:49.150Z,79.35
2019-06-07T01:44:15.144Z,79.27
2019-06-07T01:46:41.162Z,79.73
2019-06-07T01:49:07.171Z,80.18
2019-06-07T01:51:33.210Z,80.10
2019-06-07T01:54:48.532Z,80.18
2019-06-07T01:56:29.832Z,81.16
2019-06-07T01:58:56.628Z,81.41
2019-06-07T02:01:23.896Z,82.47
2019-06-07T02:03:51.791Z,82.68
2019-06-07T02:06:21.044Z,82.87
2019-06-07T02:08:49.364Z,82.76
2019-06-07T02:11:18.071Z,83.27
2019-06-07T02:13:45.505Z,83.34
2019-06-07T02:16:12.508Z,84.18
2019-06-07T02:19:00.620Z,83.37
2019-06-07T02:21:08.038Z,83.52
2019-06-07T02:23:35.567Z,83.57
2019-06-07T02:26:03.862Z,83.75
2019-06-07T02:28:44.650Z,83.62
2019-06-07T02:31:00.556Z,83.66
2019-06-07T02:33:31.174Z,83.57
2019-06-07T02:35:56.059Z,83.00
2019-06-07T02:38:27.035Z,83.11
2019-06-07T02:40:52.655Z,82.37
2019-06-07T02:43:19.719Z,82.31
2019-06-07T02:45:46.947Z,82.36
2019-06-07T02:48:13.545Z,81.98
2019-06-07T02:50:40.715Z,81.76
2019-06-07T02:53:06.825Z,81.35
2019-06-07T02:55:45.824Z,81.60
2019-06-07T02:58:00.800Z,81.47
2019-06-07T03:01:05.510Z,81.34
2019-06-07T03:03:15.383Z,81.52
2019-06-07T03:05:42.246Z,82.07
2019-06-07T03:08:10.923Z,81.57
2019-06-07T03:10:41.594Z,80.82
2019-06-07T03:13:06.139Z,81.10
2019-06-07T03:15:42.830Z,81.15
2019-06-07T03:18:09.282Z,81.15
2019-06-07T03:20:37.223Z,81.31
2019-06-07T03:23:05.425Z,81.54
2019-06-07T03:25:37.394Z,81.33
2019-06-07T03:28:05.468Z,81.30
2019-06-07T03:30:52.250Z,81.69
2019-06-07T03:32:59.401Z,81.06
2019-06-07T03:35:27.600Z,80.85
2019-06-07T03:37:53.355Z,81.61
2019-06-07T03:40:19.343Z,81.79
2019-06-07T03:42:45.363Z,80.89
2019-06-07T03:45:11.383Z,80.64
2019-06-07T03:47:41.407Z,80.35
2019-06-07T03:50:05.556Z,80.28
2019-06-07T03:52:35.031Z,80.73
2019-06-07T03:54:59.490Z,80.36
2019-06-07T03:57:25.508Z,80.22
2019-06-07T03:59:51.479Z,80.65
2019-06-07T04:02:17.468Z,80.22
2019-06-07T04:04:43.568Z,80.27
2019-06-07T04:07:09.636Z,79.84
2019-06-07T04:09:40.209Z,80.44
2019-06-07T04:12:03.807Z,80.51
2019-06-07T04:14:30.935Z,79.78
2019-06-07T04:16:57.766Z,79.79
2019-06-07T04:19:23.796Z,79.19
2019-06-07T04:21:49.784Z,78.89
2019-06-07T04:24:15.846Z,78.29
2019-06-07T04:26:44.003Z,79.00
2019-06-07T04:29:32.373Z,78.35
2019-06-07T04:31:41.888Z,78.76
2019-06-07T04:34:05.752Z,78.71
2019-06-07T04:36:45.696Z,78.48
2019-06-07T04:39:00.812Z,78.39
2019-06-07T04:41:28.668Z,78.35
2019-06-07T04:43:57.300Z,77.87
2019-06-07T04:46:23.540Z,77.33
2019-06-07T04:48:49.617Z,77.26
2019-06-07T04:51:16.157Z,77.81
2019-06-07T04:53:43.267Z,77.95
2019-06-07T04:56:09.576Z,78.43
2019-06-07T04:58:35.808Z,78.29
2019-06-07T05:01:03.616Z,78.31
2019-06-07T05:03:31.293Z,78.58
2019-06-07T05:05:57.820Z,79.14
2019-06-07T05:08:28.476Z,79.06
2019-06-07T05:10:51.712Z,79.32
2019-06-07T05:13:17.698Z,79.21
2019-06-07T05:15:43.745Z,79.44
2019-06-07T05:18:09.728Z,79.46
2019-06-07T05:20:37.870Z,79.56
2019-06-07T05:23:03.646Z,79.87
2019-06-07T05:25:31.749Z,80.03
2019-06-07T05:27:57.613Z,79.77
2019-06-07T05:33:00.176Z,79.61
2019-06-07T05:35:26.444Z,79.99
2019-06-07T05:37:52.418Z,79.74
2019-06-07T05:40:22.316Z,79.00
2019-06-07T05:42:48.376Z,79.23
2019-06-07T05:45:18.216Z,79.29
2019-06-07T05:47:50.386Z,79.59
2019-06-07T05:50:38.339Z,79.23
2019-06-07T05:52:44.311Z,79.15
2019-06-07T05:55:08.174Z,78.43
2019-06-07T05:57:37.664Z,77.28
2019-06-07T06:00:05.484Z,77.01
2019-06-07T06:02:31.478Z,76.66
2019-06-07T06:04:57.485Z,76.81
2019-06-07T06:07:23.467Z,77.16
2019-06-07T06:09:49.544Z,76.81
2019-06-07T06:12:33.467Z,77.11
2019-06-07T06:14:45.032Z,76.53
2019-06-07T06:17:11.541Z,75.94
2019-06-07T06:19:40.699Z,75.75
2019-06-07T06:22:05.532Z,75.87
2019-06-07T06:24:31.714Z,75.90
2019-06-07T06:27:15.302Z,76.42
2019-06-07T06:29:25.843Z,75.49
2019-06-07T06:32:39.447Z,75.33
2019-06-07T06:34:20.008Z,75.33
2019-06-07T06:36:49.749Z,75.12
2019-06-07T06:39:14.020Z,74.78
2019-06-07T06:41:53.745Z,74.44
2019-06-07T06:44:08.151Z,74.83
2019-06-07T06:46:42.162Z,74.68
2019-06-07T06:49:02.544Z,74.40
2019-06-07T06:51:28.574Z,74.25
2019-06-07T06:53:54.566Z,73.76
2019-06-07T06:56:20.680Z,76.09
2019-06-07T06:59:27.247Z,74.94
2019-06-07T07:01:14.607Z,74.37
2019-06-07T07:04:00.201Z,75.02
2019-06-07T07:06:25.078Z,73.70
2019-06-07T07:08:37.183Z,73.49
2019-06-07T07:11:03.175Z,74.04
2019-06-07T07:13:29.197Z,73.75
2019-06-07T07:15:58.113Z,73.49
2019-06-07T07:18:23.125Z,73.93
2019-06-07T07:20:53.375Z,73.65
2019-06-07T07:23:17.358Z,73.55
2019-06-07T07:25:49.450Z,72.85
2019-06-07T07:28:11.888Z,72.79
2019-06-07T07:30:43.057Z,73.24
2019-06-07T07:33:09.268Z,72.73
2019-06-07T07:35:35.283Z,73.15
2019-06-07T07:38:01.300Z,73.59
2019-06-07T07:42:56.749Z,73.56
2019-06-07T07:45:22.907Z,73.82
2019-06-07T07:48:02.096Z,73.57
2019-06-07T07:50:16.928Z,73.74
2019-06-07T07:52:45.151Z,73.95
2019-06-07T07:55:10.887Z,73.81
2019-06-07T07:57:37.033Z,73.06
2019-06-07T08:00:48.158Z,73.27
2019-06-07T08:02:33.145Z,72.92
2019-06-07T08:05:21.743Z,72.77
2019-06-07T08:07:28.375Z,72.94
2019-06-07T08:10:03.402Z,73.22
2019-06-07T08:12:26.364Z,72.85
2019-06-07T08:14:57.487Z,72.54
2019-06-07T08:17:20.295Z,72.45
2019-06-07T08:19:47.616Z,71.86
2019-06-07T08:22:14.148Z,71.43
2019-06-07T08:24:40.374Z,71.43
2019-06-07T08:27:25.145Z,71.97
2019-06-07T08:29:44.767Z,71.76
2019-06-07T08:32:03.020Z,71.68
2019-06-07T08:34:29.320Z,71.14
2019-06-07T08:36:59.167Z,70.79
2019-06-07T08:39:23.276Z,70.36
2019-06-07T08:41:59.823Z,70.40
2019-06-07T08:44:23.831Z,69.77
2019-06-07T08:46:45.208Z,70.39
2019-06-07T08:49:11.204Z,69.87
2019-06-07T08:51:37.309Z,69.89
2019-06-07T08:54:21.781Z,69.76
2019-06-07T08:56:31.737Z,69.93
2019-06-07T08:59:05.542Z,69.55
2019-06-07T09:01:25.673Z,69.06
2019-06-07T09:03:52.066Z,70.40
2019-06-07T09:07:01.021Z,70.73
2019-06-07T09:08:47.534Z,70.11
2019-06-07T09:11:13.643Z,70.43
2019-06-07T09:13:39.723Z,70.92
2019-06-07T09:16:08.710Z,71.19
2019-06-07T09:18:43.124Z,70.78
2019-06-07T09:21:07.747Z,70.78
2019-06-07T09:23:30.537Z,70.94
2019-06-07T09:26:08.032Z,70.35
2019-06-07T09:28:26.617Z,70.34
2019-06-07T09:30:53.093Z,70.88
2019-06-07T09:33:19.356Z,70.85
2019-06-07T09:35:45.473Z,70.63
2019-06-07T09:38:24.210Z,71.09
2019-06-07T09:40:40.575Z,70.56
2019-06-07T09:43:59.135Z,70.44
2019-06-07T09:45:34.565Z,70.27
2019-06-07T09:48:04.949Z,70.39
2019-06-07T09:50:28.562Z,69.89
2019-06-07T09:53:02.785Z,68.92
2019-06-07T09:55:24.715Z,69.33
2019-06-07T09:57:50.628Z,69.43
2019-06-07T10:02:45.024Z,69.29
2019-06-07T10:05:14.341Z,69.62
2019-06-07T10:07:57.630Z,70.90
2019-06-07T10:12:36.589Z,71.34
2019-06-07T10:15:05.284Z,71.05
2019-06-07T10:17:31.457Z,70.60
2019-06-07T10:19:59.989Z,70.66
2019-06-07T10:22:25.370Z,70.56
2019-06-07T10:24:51.340Z,69.98
2019-06-07T10:27:17.345Z,69.57
2019-06-07T10:29:43.324Z,69.15
2019-06-07T10:32:09.416Z,68.34
2019-06-07T10:34:35.405Z,68.53
2019-06-07T10:37:03.342Z,67.05
2019-06-07T10:39:29.361Z,68.01
2019-06-07T10:41:55.336Z,67.43
2019-06-07T10:44:21.315Z,66.04
2019-06-07T10:46:47.330Z,67.99
2019-06-07T10:49:13.313Z,68.04
2019-06-07T10:51:39.400Z,67.41
2019-06-07T10:54:19.578Z,67.57
2019-06-07T10:56:33.870Z,70.31
2019-06-07T10:58:59.919Z,69.38
2019-06-07T11:01:25.913Z,68.51
2019-06-07T11:03:52.028Z,68.02
2019-06-07T11:06:18.033Z,67.72
2019-06-07T11:08:44.328Z,67.00
2019-06-07T11:11:10.549Z,67.31
2019-06-07T11:13:36.545Z,66.85
2019-06-07T11:16:03.046Z,66.19
2019-06-07T11:18:30.368Z,65.22
2019-06-07T11:20:56.359Z,61.68
2019-06-07T11:23:22.386Z,63.24
2019-06-07T11:25:48.368Z,63.34
2019-06-07T11:28:14.756Z,64.35
2019-06-07T11:30:40.894Z,64.00
2019-06-07T11:33:08.369Z,62.09
2019-06-07T11:35:34.510Z,62.61
2019-06-07T11:38:00.650Z,63.91
2019-06-07T11:40:34.885Z,64.52
2019-06-07T11:42:54.728Z,65.58
2019-06-07T11:45:20.901Z,65.91
2019-06-07T11:47:46.979Z,66.56
2019-06-07T11:50:13.753Z,67.15
2019-06-07T11:52:40.035Z,66.72
2019-06-07T11:55:09.009Z,66.26
2019-06-07T11:57:35.346Z,65.93
2019-06-07T12:00:01.467Z,65.70
2019-06-07T12:02:27.655Z,65.31
2019-06-07T12:04:53.664Z,65.52
2019-06-07T12:07:19.952Z,64.60
2019-06-07T12:09:56.127Z,63.49
2019-06-07T12:12:14.566Z,61.70
2019-06-07T12:14:40.677Z,60.81
2019-06-07T12:17:06.696Z,61.03
2019-06-07T12:19:32.744Z,59.58
2019-06-07T12:21:58.869Z,58.80
2019-06-07T12:24:24.999Z,58.50
2019-06-07T12:26:51.131Z,57.80
2019-06-07T12:29:17.390Z,56.79
2019-06-07T12:31:43.406Z,56.51
2019-06-07T12:34:09.422Z,57.08
2019-06-07T12:36:35.569Z,54.71
2019-06-07T12:39:01.673Z,53.22
2019-06-07T12:41:28.604Z,53.11
2019-06-07T12:43:54.864Z,53.92
2019-06-07T12:46:26.347Z,53.12
2019-06-07T12:48:48.871Z,52.48
2019-06-07T12:51:15.224Z,51.60
2019-06-07T12:53:41.346Z,49.38
2019-06-07T12:56:07.381Z,49.43
2019-06-07T12:58:36.302Z,49.82
2019-06-07T13:01:01.238Z,50.53
2019-06-07T13:03:27.236Z,52.21
2019-06-07T13:05:53.490Z,50.51
2019-06-07T13:08:19.788Z,51.14
2019-06-07T13:10:45.865Z,50.00
2019-06-07T13:13:11.988Z,49.84
2019-06-07T13:15:38.072Z,51.12
2019-06-07T13:18:04.196Z,49.97
2019-06-07T13:20:30.266Z,50.83
2019-06-07T13:22:56.245Z,51.86
2019-06-07T13:25:25.269Z,50.59
2019-06-07T13:27:50.659Z,51.68
2019-06-07T13:30:17.154Z,50.92
2019-06-07T13:32:44.678Z,50.70
2019-06-07T13:35:10.897Z,50.49
2019-06-07T13:37:36.904Z,51.86
2019-06-07T13:40:06.393Z,51.74
2019-06-07T13:42:32.500Z,51.91
2019-06-07T13:44:58.537Z,52.61
2019-06-07T13:47:25.370Z,53.29
2019-06-07T13:49:54.947Z,51.23
2019-06-07T13:52:19.415Z,50.54
2019-06-07T13:54:45.445Z,49.95
2019-06-07T13:57:11.432Z,50.12
2019-06-07T13:59:37.423Z,47.11
2019-06-07T14:02:03.459Z,48.29
2019-06-07T14:04:29.485Z,47.57
2019-06-07T14:06:55.506Z,47.23
2019-06-07T14:09:21.594Z,47.27
2019-06-07T14:11:50.855Z,47.47
2019-06-07T14:14:15.853Z,47.76
2019-06-07T14:16:41.944Z,48.77
2019-06-07T14:19:07.938Z,48.33
2019-06-07T14:21:33.949Z,48.94
2019-06-07T14:23:59.986Z,49.45
2019-06-07T14:26:27.248Z,49.13
2019-06-07T14:28:53.531Z,48.39
2019-06-07T14:31:19.571Z,49.60
2019-06-07T14:33:45.599Z,48.44
2019-06-07T14:36:11.642Z,48.54
2019-06-07T14:38:38.067Z,49.16
2019-06-07T14:41:04.131Z,48.82
2019-06-07T14:43:31.607Z,49.19
2019-06-07T14:45:57.820Z,49.58
2019-06-07T14:48:23.866Z,49.53
2019-06-07T14:50:49.966Z,49.55
2019-06-07T14:53:16.011Z,49.76
2019-06-07T14:55:42.072Z,49.42
2019-06-07T14:58:08.159Z,50.34
2019-06-07T15:00:42.259Z,51.03
2019-06-07T15:03:08.713Z,50.18
2019-06-07T15:05:35.645Z,50.17
2019-06-07T15:08:02.005Z,50.40
2019-06-07T15:10:28.676Z,51.38
2019-06-07T15:12:54.828Z,50.94
2019-06-07T15:15:20.805Z,51.58
2019-06-07T15:17:46.770Z,52.97
2019-06-07T15:20:12.924Z,52.95
2019-06-07T15:22:39.172Z,53.44
2019-06-07T15:25:05.724Z,53.81
2019-06-07T15:27:31.717Z,53.49
2019-06-07T15:29:57.788Z,53.18
2019-06-07T15:32:23.805Z,52.35
2019-06-07T15:34:49.778Z,53.23
2019-06-07T15:37:15.785Z,54.13
2019-06-07T15:39:41.835Z,54.47
2019-06-07T15:42:07.945Z,54.70
2019-06-07T15:44:35.339Z,54.38
2019-06-07T15:47:01.550Z,54.41
2019-06-07T15:49:27.656Z,53.93
2019-06-07T15:51:53.730Z,54.08
2019-06-07T15:54:19.833Z,54.02
2019-06-07T15:56:45.878Z,55.02
2019-06-07T15:59:12.038Z,55.11
2019-06-07T16:01:39.532Z,55.18
2019-06-07T16:04:06.072Z,54.43
2019-06-07T16:06:32.288Z,54.35
2019-06-07T16:08:58.292Z,54.06
2019-06-07T16:11:27.094Z,54.77
2019-06-07T16:13:53.088Z,55.06
2019-06-07T16:16:19.342Z,55.10
2019-06-07T16:18:47.233Z,54.94
2019-06-07T16:21:13.355Z,55.39
2019-06-07T16:23:39.841Z,55.52
2019-06-07T16:26:06.052Z,55.63
2019-06-07T16:28:32.065Z,56.05
2019-06-07T16:30:58.056Z,55.57
2019-06-07T16:33:24.108Z,55.78
2019-06-07T16:35:50.117Z,56.72
2019-06-07T16:38:16.149Z,56.69
2019-06-07T16:40:42.448Z,57.56
2019-06-07T16:43:16.574Z,57.69
2019-06-07T16:45:36.543Z,57.47
2019-06-07T16:48:03.191Z,57.65
2019-06-07T16:50:29.176Z,57.67
2019-06-07T16:52:55.183Z,58.33
2019-06-07T16:55:21.268Z,57.97
2019-06-07T16:57:47.365Z,58.25
2019-06-07T17:00:13.890Z,58.12
2019-06-07T17:02:40.258Z,58.11
2019-06-07T17:05:07.937Z,57.91
2019-06-07T17:07:34.335Z,58.10
2019-06-07T17:10:00.647Z,58.04
2019-06-07T17:12:26.637Z,58.35
2019-06-07T17:14:52.613Z,58.07
2019-06-07T17:17:18.629Z,58.69
2019-06-07T17:19:44.994Z,58.63
2019-06-07T17:22:11.113Z,58.12
2019-06-07T17:24:37.280Z,58.11
2019-06-07T17:27:03.378Z,57.95
2019-06-07T17:29:29.390Z,58.21
2019-06-07T17:31:55.369Z,58.63
2019-06-07T17:34:21.373Z,59.08
2019-06-07T17:36:48.579Z,59.43
2019-06-07T17:39:14.795Z,59.65
2019-06-07T17:41:52.525Z,59.01
2019-06-07T17:44:08.830Z,59.20
2019-06-07T17:46:34.954Z,59.43
2019-06-07T17:49:00.940Z,59.02
2019-06-07T17:51:27.048Z,59.53
2019-06-07T17:53:53.019Z,59.55
2019-06-07T17:56:19.031Z,59.79
2019-06-07T17:58:46.139Z,60.11
2019-06-07T18:01:12.541Z,60.27
2019-06-07T18:03:38.582Z,60.27
2019-06-07T18:06:04.587Z,60.73
2019-06-07T18:08:30.885Z,60.66
2019-06-07T18:10:56.901Z,60.71
2019-06-07T18:13:22.883Z,60.73
2019-06-07T18:15:53.849Z,61.33
2019-06-07T18:18:16.865Z,61.30
2019-06-07T18:20:42.958Z,61.23
2019-06-07T18:23:09.572Z,61.32
2019-06-07T18:25:35.805Z,61.98
2019-06-07T18:28:02.104Z,62.10
2019-06-07T18:30:28.195Z,62.37
2019-06-07T18:32:55.068Z,63.19
2019-06-07T18:35:21.208Z,63.24
2019-06-07T18:37:47.227Z,63.28
2019-06-07T18:40:14.012Z,63.16
2019-06-07T18:42:40.034Z,63.55
2019-06-07T18:45:06.213Z,64.13
2019-06-07T18:47:32.262Z,64.91
2019-06-07T18:49:58.603Z,64.37
2019-06-07T18:52:26.714Z,64.98
2019-06-07T18:54:53.069Z,64.95
2019-06-07T18:57:19.278Z,65.00
2019-06-07T18:59:45.384Z,65.56
2019-06-07T19:02:11.392Z,65.19
2019-06-07T19:04:37.501Z,65.83
2019-06-07T19:07:03.521Z,65.87
2019-06-07T19:09:29.704Z,66.35
2019-06-07T19:11:56.900Z,66.40
2019-06-07T19:14:36.266Z,66.64
2019-06-07T19:16:52.294Z,67.18
2019-06-07T19:19:18.941Z,67.85
2019-06-07T19:21:45.100Z,68.41
2019-06-07T19:24:11.197Z,68.40
2019-06-07T19:26:37.239Z,68.96
2019-06-07T19:29:03.277Z,69.29
2019-06-07T19:31:29.306Z,70.14
2019-06-07T19:33:55.555Z,70.18
2019-06-07T19:36:21.578Z,70.98
2019-06-07T19:38:47.716Z,71.36
2019-06-07T19:41:19.562Z,71.79
2019-06-07T19:43:41.922Z,72.23
2019-06-07T19:46:07.908Z,72.78
2019-06-07T19:48:33.973Z,74.07
2019-06-07T19:51:03.106Z,74.49
2019-06-07T19:53:29.270Z,75.01
2019-06-07T19:55:55.405Z,75.67
2019-06-07T19:58:21.426Z,76.24
2019-06-07T20:00:47.453Z,76.52
2019-06-07T20:03:13.509Z,77.83
2019-06-07T20:05:39.609Z,78.78
2019-06-07T20:08:05.628Z,78.61
2019-06-07T20:10:31.606Z,79.38
2019-06-07T20:13:00.873Z,79.45
2019-06-07T20:15:29.454Z,79.38
2019-06-07T20:17:55.191Z,80.09
2019-06-07T20:20:23.891Z,80.52
2019-06-07T20:22:49.420Z,80.73
2019-06-07T20:25:16.162Z,80.42
2019-06-07T20:27:42.493Z,80.73
2019-06-07T20:30:10.679Z,80.89
2019-06-07T20:32:36.665Z,81.24
2019-06-07T20:35:04.095Z,81.02
2019-06-07T20:37:30.096Z,81.43
2019-06-07T20:39:57.039Z,82.33
2019-06-07T20:42:23.202Z,82.15
2019-06-07T20:44:49.422Z,82.54
2019-06-07T20:47:15.464Z,82.56
2019-06-07T20:49:41.445Z,82.35
2019-06-07T20:52:08.636Z,83.05
2019-06-07T20:54:34.759Z,83.31
2019-06-07T20:57:00.865Z,83.44
2019-06-07T20:59:26.844Z,84.00
2019-06-07T21:01:52.857Z,83.82
2019-06-07T21:04:18.876Z,83.59
2019-06-07T21:06:44.884Z,84.02
2019-06-07T21:09:10.935Z,84.27
2019-06-07T21:11:36.953Z,84.18
2019-06-07T21:14:04.100Z,84.21
2019-06-07T21:16:30.265Z,84.76
2019-06-07T21:18:56.252Z,85.04
2019-06-07T21:21:22.260Z,84.92
2019-06-07T21:23:48.280Z,84.81
2019-06-07T21:26:14.353Z,85.53
2019-06-07T21:28:40.361Z,85.95
2019-06-07T21:31:06.607Z,85.98
2019-06-07T21:33:32.748Z,85.24
2019-06-07T21:35:58.833Z,85.43
2019-06-07T21:38:24.849Z,85.46
2019-06-07T21:40:50.917Z,85.69
2019-06-07T21:43:16.925Z,86.09
2019-06-07T21:45:42.969Z,86.44
2019-06-07T21:48:08.995Z,87.21
2019-06-07T21:50:34.970Z,87.47
2019-06-07T21:53:02.203Z,87.30
2019-06-07T21:55:28.564Z,87.08
2019-06-07T21:57:54.868Z,87.20
2019-06-07T22:00:25.863Z,87.42
2019-06-07T22:02:51.948Z,86.93
2019-06-07T22:05:18.120Z,87.26
2019-06-07T22:07:44.100Z,87.52
2019-06-07T22:10:10.372Z,87.91
2019-06-07T22:12:36.498Z,88.00
2019-06-07T22:15:27.136Z,87.52
2019-06-07T22:17:33.318Z,87.88
2019-06-07T22:19:59.332Z,88.18
2019-06-07T22:22:25.305Z,87.69
2019-06-07T22:24:51.307Z,88.37
2019-06-07T22:27:17.731Z,88.30
2019-06-07T22:29:43.899Z,88.22
2019-06-07T22:32:10.910Z,88.00
2019-06-07T22:34:37.080Z,88.32
2019-06-07T22:37:03.336Z,88.68
2019-06-07T22:39:29.348Z,88.37
2019-06-07T22:41:55.320Z,88.07
2019-06-07T22:44:21.336Z,87.83
2019-06-07T22:46:47.328Z,88.11
2019-06-07T22:49:13.403Z,88.20
2019-06-07T22:51:39.517Z,87.89
2019-06-07T22:54:05.543Z,88.58
2019-06-07T22:56:39.308Z,88.74
2019-06-07T22:59:05.296Z,88.90
2019-06-07T23:01:31.325Z,89.08
2019-06-07T23:03:57.295Z,89.42
2019-06-07T23:06:23.294Z,89.33
2019-06-07T23:08:49.404Z,89.46
2019-06-07T23:11:15.424Z,89.73
2019-06-07T23:13:41.389Z,89.91
2019-06-07T23:16:07.435Z,90.03
2019-06-07T23:18:33.449Z,90.41
2019-06-07T23:20:59.445Z,90.45
2019-06-07T23:23:25.425Z,90.46
2019-06-07T23:25:51.504Z,90.25
2019-06-07T23:28:18.739Z,90.51
2019-06-07T23:30:44.821Z,90.04
2019-06-07T23:33:10.935Z,90.41
2019-06-07T23:35:37.065Z,90.65
2019-06-07T23:38:03.120Z,90.54
2019-06-07T23:40:29.175Z,90.91
2019-06-07T23:42:55.184Z,90.87
2019-06-07T23:45:21.761Z,90.81
2019-06-07T23:47:47.881Z,90.87
2019-06-07T23:50:13.980Z,91.11
2019-06-07T23:52:39.976Z,91.36
2019-06-07T23:55:06.132Z,91.30
2019-06-07T23:57:32.205Z,91.27
2019-06-07T23:59:58.169Z,91.02
